Hauptseite
METAR-TAF:

METAR-TAF

Flughäfen :

Flughafen Figari

Figari, Frankreich

Breite: 41-30N, Länge: 009-06E, Höhe: 26 m

Beobachtung

Neuester Wetterbericht von vor 20 Minuten, um 12:30 UTC
Wind 14 kt aus Ost/Nordost, variierte zwischen Nord/Nordost und Ost
Temperatur 20°C
Luftfeuchtigkeit 37%
Luftdruck 1016 hPa
Sichtweite 10 km oder mehr
keine Wolken unter 1500 m und keine Kumulonimbus oder Gewitterwolken

METAR: LFKF 221230Z AUTO 06014KT 020V090 CAVOK 20/05 Q1016 TEMPO 06015G25KT

Zeit: 14:50 (12:50 UTC)

Prognose

Neuester Wetterbericht von vor 4 Stunden und 50 Minuten, um 08:00 UTC
Gültige Prognose vom 22 um 09 UTC bis 23 um 09 UTC
Wind 10 kt aus Ost/Nordost
Sichtweite 10 km oder mehr
keine Wolken unter 1500 m und keine Kumulonimbus oder Gewitterwolken
Zeitweise
vom 22 um 09 UTC bis 22 um 15 UTC
Wind 15 kt aus Ost/Nordost, Böen bis zu 25 kt

TAF: LFKF 220800Z 2209/2309 06010KT CAVOK TEMPO 2209/2215 06015G25KT

Wetterbeobachtungen und Prognosen von mehr als 4000 Flughäfen (METAR und TAF Bericht).

Die verfügbaren Stationen werden durch gelbe und rote Markierungen auf der Karte dargestellt.

Führen Sie die Maus auf sie, um den Namen der Station zu sehen.

Darauf klicken, um die Beobachtung von Wetterbeobachtungen und Prognosen zu sehen.

Um die Karte zu ändern : klicken Sie auf den grünen Tasten mit einem schwarzen Kreuz Zum Vergrößern, auf den grünen Button mit einem Gedankenstrich zu verkleinern, oder auf die grünen Pfeile für benachbarte Karten.


METAR-TAF: